Castell, Texas
Current Conditions -  °F | °C
As of 11:55 AM on Friday 28 Nov 2014 (Local Time) from KAQO Reporting Station
Clear Clear  
Wind Chill: 68°   Ceiling: Unl
Heat Index: 68°   Visibility: 10mi
Dew Point: 50°   Wind: 14mph
Humidity: 52%   Direction: 210°SSW
Pressure: 30.24"   Gusts: 21mph
Location:  30.69°N, 98.94°W
Report Text: KAQO 281755Z AUTO 21012G18KT 10SM CLR 20/10 A3024 RMK AO2
Loading
Personal Weather Stations






























Interactive Weather Map New forecast layout! Learn more

10-Day Weather Forecast

Advertisements
Track Severe Weather on mobile